Time;durP1;ratioP1;P1;durP2;ratioP2;P2;SDS_P1;SDS_P2;PMS_P1;PMS_P2;Temp;Humidity;BMP_temperature;BMP_pressure;BME280_temperature;BME280_humidity;BME280_pressure;Samples;Min_cycle;Max_cycle;Signal;HPM_P1;HPM_P2
2023/05/05 00:02:39;;;;;;;8.67;6.07;;;;;;;18.24;41.86;99768.78;10319786;28;20244;-38
2023/05/05 00:07:41;;;;;;;6.53;5.53;;;;;;;18.48;42.21;99783.16;10324527;28;20225;-39
2023/05/05 00:12:43;;;;;;;7.13;5.37;;;;;;;18.13;41.93;99761.47;10326068;28;20232;-39
2023/05/05 00:17:45;;;;;;;7.37;5.90;;;;;;;19.89;39.95;99729.41;10335333;28;20237;-39
2023/05/05 00:22:47;;;;;;;8.50;5.90;;;;;;;18.87;41.15;99759.03;10320212;28;20249;-39
2023/05/05 00:27:49;;;;;;;10.83;5.97;;;;;;;18.41;42.32;99796.03;10371894;28;20233;-40
2023/05/05 00:32:51;;;;;;;9.63;5.80;;;;;;;18.73;41.78;99758.50;10377935;28;20241;-40
2023/05/05 00:37:54;;;;;;;7.97;6.03;;;;;;;18.01;42.86;99772.31;10379570;28;20229;-39
2023/05/05 00:42:55;;;;;;;8.30;6.30;;;;;;;18.26;42.70;99753.94;10372746;28;20241;-38
2023/05/05 00:47:58;;;;;;;8.90;6.63;;;;;;;18.48;43.02;99749.84;10378572;28;20248;-40
2023/05/05 00:53:04;;;;;;;7.17;6.30;;;;;;;18.95;42.04;99726.16;10377409;28;20230;-38
2023/05/05 00:58:06;;;;;;;8.03;7.10;;;;;;;17.52;44.14;99799.47;10377285;28;20231;-39
2023/05/05 01:03:08;;;;;;;7.93;7.00;;;;;;;17.90;43.92;99763.13;10372238;28;20257;-38
2023/05/05 01:08:24;;;;;;;7.57;6.87;;;;;;;18.83;42.40;99728.88;10376281;28;20295;-39
2023/05/05 01:13:41;;;;;;;7.53;6.70;;;;;;;18.73;43.54;99750.38;10373615;28;20228;-38
2023/05/05 01:18:57;;;;;;;7.23;6.40;;;;;;;18.86;43.78;99753.84;10374689;28;20260;-39
2023/05/05 01:24:23;;;;;;;7.73;6.50;;;;;;;18.52;43.68;99753.72;10375459;28;20247;-39
2023/05/05 01:29:25;;;;;;;8.37;6.47;;;;;;;17.63;44.61;99779.78;10369969;28;21540;-39
2023/05/05 01:34:33;;;;;;;7.70;6.90;;;;;;;18.39;44.14;99792.69;10377462;28;20225;-39
2023/05/05 01:39:37;;;;;;;7.50;6.10;;;;;;;19.01;43.03;99778.59;10374219;28;20315;-40
2023/05/05 01:44:42;;;;;;;6.93;6.20;;;;;;;19.14;43.57;99785.63;10370107;28;20925;-39
2023/05/05 01:49:46;;;;;;;8.30;6.60;;;;;;;19.91;41.89;99770.75;10372786;28;20737;-38
2023/05/05 01:54:49;;;;;;;6.67;5.73;;;;;;;19.11;43.09;99767.94;10372954;28;20233;-39
2023/05/05 01:59:52;;;;;;;8.83;5.57;;;;;;;17.98;44.61;99808.78;10388804;28;20233;-39
2023/05/05 02:04:56;;;;;;;8.27;5.50;;;;;;;18.68;43.96;99785.50;10370310;28;20688;-39
2023/05/05 02:10:01;;;;;;;7.43;5.37;;;;;;;18.48;44.44;99817.56;10376456;28;20228;-38
2023/05/05 02:15:04;;;;;;;7.93;5.30;;;;;;;18.69;44.10;99816.94;10371978;28;20781;-38
2023/05/05 02:20:10;;;;;;;6.73;5.23;;;;;;;18.38;44.55;99808.13;10367841;28;20229;-40
2023/05/05 02:25:12;;;;;;;7.13;5.00;;;;;;;18.65;44.17;99788.69;10375576;28;20773;-40
2023/05/05 02:30:18;;;;;;;6.93;4.37;;;;;;;17.55;45.95;99853.13;10369146;28;20236;-38
2023/05/05 02:35:25;;;;;;;9.20;5.37;;;;;;;16.83;47.50;99864.56;10420395;23;20564;-38
2023/05/05 02:40:29;;;;;;;6.27;5.23;;;;;;;19.31;43.43;99829.09;10418316;28;20679;-37
2023/05/05 02:45:31;;;;;;;8.57;5.30;;;;;;;18.16;44.90;99836.84;10413658;28;20232;-38
2023/05/05 02:50:33;;;;;;;6.37;5.23;;;;;;;19.44;43.58;99820.66;10412044;28;20235;-37
2023/05/05 02:56:04;;;;;;;6.43;5.23;;;;;;;19.26;43.40;99818.94;10415396;28;20242;-37
2023/05/05 03:01:29;;;;;;;6.77;5.30;;;;;;;18.89;44.21;99807.59;10416969;28;20661;-38
2023/05/05 03:06:38;;;;;;;7.37;5.00;;;;;;;18.12;44.70;99819.41;10415849;28;20235;-35
2023/05/05 03:12:05;;;;;;;5.93;5.37;;;;;;;18.50;45.15;99832.50;10411817;28;20236;-37
2023/05/05 03:17:11;;;;;;;8.67;5.93;;;;;;;18.61;44.79;99833.59;10413480;28;20229;-37
2023/05/05 03:22:13;;;;;;;7.70;6.50;;;;;;;18.34;45.22;99825.94;10411095;28;20233;-38
2023/05/05 03:27:15;;;;;;;7.03;6.07;;;;;;;18.44;44.59;99817.22;10412793;28;20236;-38
2023/05/05 03:32:17;;;;;;;7.80;6.70;;;;;;;17.37;46.51;99864.81;10415226;28;20326;-36
2023/05/05 03:37:18;;;;;;;8.97;6.97;;;;;;;18.07;45.60;99823.63;10418742;28;20229;-37
2023/05/05 03:42:20;;;;;;;8.77;6.73;;;;;;;18.50;44.86;99805.41;10408478;28;20250;-36
2023/05/05 03:47:23;;;;;;;7.47;6.30;;;;;;;19.18;44.09;99822.03;10419502;28;20247;-36
2023/05/05 03:52:25;;;;;;;7.77;6.00;;;;;;;19.38;43.65;99816.19;10416635;28;20656;-36
2023/05/05 03:57:26;;;;;;;8.07;5.90;;;;;;;18.19;45.68;99814.72;10420409;28;20834;-36
2023/05/05 04:02:28;;;;;;;11.57;6.57;;;;;;;17.68;46.38;99852.13;10420608;28;20228;-35
2023/05/05 04:07:30;;;;;;;7.83;6.10;;;;;;;17.75;46.87;99873.69;10419796;28;20255;-36
2023/05/05 04:12:32;;;;;;;7.47;6.23;;;;;;;18.07;45.59;99823.63;10418854;28;20243;-37
2023/05/05 04:17:33;;;;;;;8.90;6.17;;;;;;;17.46;47.28;99873.41;10421889;28;20224;-37
2023/05/05 04:22:35;;;;;;;8.03;6.00;;;;;;;17.59;47.04;99869.72;10421265;28;20268;-37
2023/05/05 04:27:37;;;;;;;7.50;6.70;;;;;;;17.07;48.35;99891.78;10416918;28;20231;-36
2023/05/05 04:32:39;;;;;;;7.40;6.53;;;;;;;16.62;49.23;99892.84;10418287;28;20924;-36
2023/05/05 04:37:41;;;;;;;6.93;5.90;;;;;;;17.20;47.85;99869.19;10422000;28;20761;-37
2023/05/05 04:42:43;;;;;;;9.43;6.70;;;;;;;16.56;49.19;99912.63;10416684;28;20240;-37
2023/05/05 04:47:45;;;;;;;6.77;5.57;;;;;;;16.25;49.49;99914.31;10419947;28;20243;-36
2023/05/05 04:52:47;;;;;;;6.77;5.80;;;;;;;17.41;47.71;99916.56;10418360;28;20233;-36
2023/05/05 04:57:49;;;;;;;6.37;5.63;;;;;;;17.25;47.80;99902.59;10419576;28;20232;-36
2023/05/05 05:02:51;;;;;;;6.07;5.47;;;;;;;17.11;48.53;99896.53;10420354;28;20240;-37
2023/05/05 05:07:53;;;;;;;7.77;6.30;;;;;;;17.88;47.02;99893.28;10417745;28;20330;-37
2023/05/05 05:12:54;;;;;;;7.07;5.03;;;;;;;16.21;50.25;99934.66;10417422;28;20562;-36
2023/05/05 05:17:56;;;;;;;7.10;5.90;;;;;;;17.70;46.77;99877.91;10413381;28;20228;-37
2023/05/05 05:23:00;;;;;;;9.63;5.47;;;;;;;17.15;48.42;99900.41;10418537;28;20232;-37
2023/05/05 05:28:02;;;;;;;6.03;4.87;;;;;;;17.18;49.09;99940.53;10414269;28;20347;-37
2023/05/05 05:33:11;;;;;;;5.73;4.87;;;;;;;17.04;48.92;99914.69;10411912;28;20232;-37
2023/05/05 05:38:13;;;;;;;7.70;5.10;;;;;;;17.96;47.45;99954.38;10421080;28;20228;-38
2023/05/05 05:43:14;;;;;;;6.53;4.70;;;;;;;17.53;47.73;99950.75;10416001;28;20239;-38
2023/05/05 05:48:16;;;;;;;5.70;4.17;;;;;;;18.32;46.78;99977.03;10409689;28;20245;-37
2023/05/05 05:53:18;;;;;;;4.93;4.13;;;;;;;17.65;47.65;99928.38;10409673;28;20244;-37
2023/05/05 05:58:20;;;;;;;5.20;4.57;;;;;;;18.32;46.82;99949.94;10410237;28;20880;-36
2023/05/05 06:03:22;;;;;;;6.33;4.80;;;;;;;17.94;47.57;99924.00;10412491;28;20236;-37
2023/05/05 06:08:24;;;;;;;6.23;4.43;;;;;;;19.08;46.37;99949.31;10413777;28;20228;-37
2023/05/05 06:13:26;;;;;;;6.20;4.50;;;;;;;19.05;45.63;99882.81;10406533;28;20232;-38
2023/05/05 06:18:27;;;;;;;6.80;4.80;;;;;;;18.68;46.55;99888.47;10410235;28;20208;-38
2023/05/05 06:23:29;;;;;;;7.33;4.90;;;;;;;19.50;45.18;99873.97;10417682;28;20571;-37
2023/05/05 06:28:31;;;;;;;7.07;4.43;;;;;;;19.98;44.69;99899.03;10408253;28;20235;-37
2023/05/05 06:33:33;;;;;;;6.37;4.50;;;;;;;19.44;45.70;99893.91;10414789;28;20232;-37
2023/05/05 06:38:35;;;;;;;5.07;4.30;;;;;;;19.43;45.62;99875.16;10411868;28;20209;-37
2023/05/05 06:43:36;;;;;;;5.57;4.30;;;;;;;18.18;47.50;99878.03;10415165;28;22393;-37
2023/05/05 06:48:38;;;;;;;5.13;4.37;;;;;;;19.45;46.03;99890.16;10411628;28;20236;-38
2023/05/05 06:53:40;;;;;;;9.80;4.27;;;;;;;19.51;45.35;99872.06;10413128;28;20694;-37
2023/05/05 06:58:42;;;;;;;4.90;4.40;;;;;;;19.67;45.64;99889.50;10408157;28;20227;-37
2023/05/05 07:03:44;;;;;;;4.53;4.00;;;;;;;20.17;45.38;99902.38;10409887;28;20586;-37
2023/05/05 07:08:46;;;;;;;5.47;4.57;;;;;;;19.38;45.59;99859.59;10415141;28;20235;-37
2023/05/05 07:13:48;;;;;;;4.93;4.37;;;;;;;18.83;46.86;99850.88;10413189;28;20563;-37
2023/05/05 07:18:49;;;;;;;5.83;4.63;;;;;;;19.91;45.48;99890.22;10413844;28;20727;-37
2023/05/05 07:23:51;;;;;;;5.17;4.30;;;;;;;19.43;46.48;99883.31;10418608;28;20235;-37
2023/05/05 07:28:56;;;;;;;8.50;4.30;;;;;;;19.57;46.12;99846.72;10417086;28;20779;-37
2023/05/05 07:33:57;;;;;;;4.87;4.13;;;;;;;19.67;45.29;99827.06;10415612;28;20339;-37
2023/05/05 07:38:59;;;;;;;5.00;3.93;;;;;;;20.00;44.89;99807.25;10415927;28;20959;-37
2023/05/05 07:44:01;;;;;;;4.30;3.90;;;;;;;20.39;44.97;99814.69;10419065;28;20354;-37
2023/05/05 07:49:03;;;;;;;5.83;4.10;;;;;;;20.65;44.59;99785.97;10419874;28;20981;-37
2023/05/05 07:54:04;;;;;;;5.13;3.83;;;;;;;20.49;43.60;99736.81;10416378;28;20350;-37
2023/05/05 07:59:06;;;;;;;4.15;3.75;;;;;;;21.26;43.78;99757.88;10418505;28;20281;-37
2023/05/05 08:04:08;;;;;;;4.78;3.70;;;;;;;21.42;42.94;99730.56;10418693;28;20601;-37
2023/05/05 08:09:10;;;;;;;4.07;3.50;;;;;;;21.12;43.40;99757.44;10415571;28;20718;-37
2023/05/05 08:14:12;;;;;;;4.53;3.45;;;;;;;21.93;42.02;99745.66;10419804;28;20243;-37
2023/05/05 08:19:14;;;;;;;6.75;3.40;;;;;;;21.63;42.77;99659.94;10412991;28;20598;-37
2023/05/05 08:24:28;;;;;;;4.43;2.83;;;;;;;22.70;41.38;99705.22;10419709;28;20400;-37
2023/05/05 08:29:30;;;;;;;4.68;3.08;;;;;;;21.91;42.72;99717.88;10415035;28;20587;-37
2023/05/05 08:34:32;;;;;;;5.22;2.50;;;;;;;21.29;42.83;99738.28;10416910;28;20247;-37
2023/05/05 08:39:34;;;;;;;4.18;2.38;;;;;;;21.61;42.67;99732.91;10416187;28;20258;-37
2023/05/05 08:44:35;;;;;;;3.65;2.83;;;;;;;21.94;42.71;99717.38;10416816;28;20240;-37
2023/05/05 08:49:46;;;;;;;3.75;2.58;;;;;;;22.19;41.71;99694.91;10409387;28;20228;-37
2023/05/05 08:55:05;;;;;;;4.43;2.42;;;;;;;21.96;41.19;99707.03;10415382;28;20248;-37
2023/05/05 09:00:09;;;;;;;2.72;2.33;;;;;;;21.66;41.67;99692.09;10416722;28;20212;-38
2023/05/05 09:05:11;;;;;;;3.30;2.20;;;;;;;21.50;41.50;99701.22;10414204;28;20706;-37
2023/05/05 09:10:13;;;;;;;3.90;2.10;;;;;;;20.91;40.50;99685.69;10416737;28;21072;-37
2023/05/05 09:15:15;;;;;;;4.15;2.22;;;;;;;21.89;39.77;99641.03;10417538;28;20217;-37
2023/05/05 09:20:16;;;;;;;5.28;2.13;;;;;;;21.87;41.07;99665.81;10411916;28;20229;-37
2023/05/05 09:25:18;;;;;;;4.85;2.10;;;;;;;22.78;39.74;99658.34;10410503;28;22367;-37
2023/05/05 09:30:25;;;;;;;2.63;1.90;;;;;;;22.12;41.15;99643.38;10415016;28;20224;-37
2023/05/05 09:35:28;;;;;;;3.33;1.98;;;;;;;21.70;40.75;99662.44;10411131;28;20232;-37
2023/05/05 09:40:45;;;;;;;5.22;2.00;;;;;;;22.22;40.48;99672.59;10415904;28;20779;-37
2023/05/05 09:45:47;;;;;;;3.28;1.83;;;;;;;21.85;40.80;99643.47;10411337;28;20685;-37
2023/05/05 09:50:50;;;;;;;2.10;1.80;;;;;;;23.06;40.36;99627.06;10411411;28;20271;-37
2023/05/05 09:55:59;;;;;;;3.72;2.17;;;;;;;22.31;41.62;99649.16;10412693;28;20225;-36
2023/05/05 10:01:01;;;;;;;4.47;2.30;;;;;;;22.43;40.91;99648.94;10410210;28;20770;-36
2023/05/05 10:06:03;;;;;;;4.22;2.22;;;;;;;22.31;41.08;99632.81;10406269;28;20713;-37
2023/05/05 10:11:05;;;;;;;3.85;2.20;;;;;;;22.99;39.61;99618.25;10409828;28;20228;-37
2023/05/05 10:16:10;;;;;;;2.58;2.28;;;;;;;21.95;40.36;99650.94;10412698;28;20224;-37
2023/05/05 10:21:16;;;;;;;2.35;1.80;;;;;;;22.79;39.37;99591.81;10412892;28;20729;-36
2023/05/05 10:26:21;;;;;;;4.97;1.90;;;;;;;24.25;38.24;99575.75;10410477;28;20243;-36
2023/05/05 10:31:28;;;;;;;3.28;1.80;;;;;;;23.61;38.68;99575.41;10403843;28;20224;-37
2023/05/05 10:36:31;;;;;;;2.05;1.75;;;;;;;23.17;39.44;99565.09;10408668;28;20251;-37
2023/05/05 10:41:33;;;;;;;2.78;1.90;;;;;;;23.68;38.75;99560.66;10409359;28;20224;-37
2023/05/05 10:46:35;;;;;;;3.80;1.90;;;;;;;23.39;38.92;99547.59;10406571;28;20699;-37
2023/05/05 10:51:53;;;;;;;3.17;1.83;;;;;;;24.22;37.83;99488.03;10407703;28;20233;-37
2023/05/05 10:56:57;;;;;;;5.20;2.22;;;;;;;24.00;38.76;99560.25;10405673;28;20231;-37
2023/05/05 11:06:29;;;;;;;3.72;2.30;;;;;;;21.08;43.67;99632.00;10461785;28;20851;-66
2023/05/05 11:12:04;;;;;;;3.03;2.30;;;;;;;22.05;41.37;99601.94;10464892;28;20317;-64
2023/05/05 11:17:44;;;;;;;3.83;2.67;;;;;;;22.05;41.55;99596.50;10464227;28;20242;-64
2023/05/05 11:23:01;;;;;;;2.28;1.98;;;;;;;22.10;41.58;99571.16;10460983;28;20235;-65
2023/05/05 11:28:14;;;;;;;3.50;1.88;;;;;;;21.14;42.17;99620.09;10467510;28;20726;-64
2023/05/05 11:33:25;;;;;;;3.55;2.30;;;;;;;21.99;41.17;99594.00;10461014;28;20231;-63
2023/05/05 11:38:48;;;;;;;2.70;1.80;;;;;;;22.22;40.55;99563.59;10461926;28;20211;-63
2023/05/05 11:44:07;;;;;;;2.28;1.80;;;;;;;20.88;41.88;99615.50;10460747;28;20274;-65
2023/05/05 11:49:09;;;;;;;2.03;1.67;;;;;;;22.28;40.62;99562.50;10457498;28;20651;-65
2023/05/05 11:54:12;;;;;;;5.07;2.13;;;;;;;22.42;40.71;99521.94;10462871;28;20339;-65
2023/05/05 11:59:14;;;;;;;4.22;1.80;;;;;;;22.19;40.29;99590.56;10458918;28;20223;-67
2023/05/05 12:04:18;;;;;;;1.85;1.55;;;;;;;22.71;39.90;99519.53;10458965;28;20768;-65
2023/05/05 12:09:22;;;;;;;2.60;2.08;;;;;;;23.30;39.62;99532.88;10459010;28;20369;-64
2023/05/05 12:14:24;;;;;;;5.97;1.90;;;;;;;22.60;40.65;99508.88;10455377;28;20239;-66
2023/05/05 12:19:32;;;;;;;3.35;1.98;;;;;;;22.29;40.97;99568.78;10431128;28;20251;-67
2023/05/05 12:24:33;;;;;;;3.42;2.00;;;;;;;21.97;41.13;99556.13;10432402;28;20292;-74
2023/05/05 12:29:35;;;;;;;2.78;1.70;;;;;;;21.55;41.80;99585.03;10431502;28;20255;-74
2023/05/05 12:34:37;;;;;;;2.17;1.98;;;;;;;21.96;41.08;99505.47;10429041;28;20227;-76
2023/05/05 12:39:39;;;;;;;2.83;1.63;;;;;;;22.83;39.91;99458.44;10432946;28;20232;-73
2023/05/05 12:44:43;;;;;;;3.45;1.77;;;;;;;23.41;38.06;99466.22;10428809;28;20236;-74
2023/05/05 12:49:49;;;;;;;3.33;1.92;;;;;;;22.84;38.61;99439.06;10437700;28;20754;-72
2023/05/05 12:54:58;;;;;;;2.20;1.58;;;;;;;23.38;38.30;99437.59;10435854;28;20242;-73
2023/05/05 13:00:12;;;;;;;3.53;1.70;;;;;;;22.36;39.24;99512.09;10431991;28;20278;-73
2023/05/05 13:05:14;;;;;;;2.35;1.70;;;;;;;23.40;37.61;99459.97;10435300;28;20231;-73
2023/05/05 13:10:15;;;;;;;5.95;1.70;;;;;;;24.17;36.69;99431.47;10428024;28;20267;-73
2023/05/05 13:15:17;;;;;;;3.10;1.70;;;;;;;23.78;37.25;99404.91;10431608;28;20243;-73
2023/05/05 13:20:18;;;;;;;4.22;1.75;;;;;;;22.88;37.58;99439.34;10436092;28;20228;-73
2023/05/05 13:25:20;;;;;;;2.28;1.77;;;;;;;23.74;36.31;99444.84;10429446;28;20236;-75
2023/05/05 13:30:22;;;;;;;2.53;1.80;;;;;;;23.56;37.56;99455.25;10431927;28;20232;-74
2023/05/05 13:35:23;;;;;;;3.70;1.85;;;;;;;22.38;37.37;99457.31;10431246;28;20269;-74
2023/05/05 13:40:25;;;;;;;3.83;1.60;;;;;;;24.19;35.20;99371.88;10431419;28;20227;-74
2023/05/05 13:45:27;;;;;;;2.58;1.50;;;;;;;23.20;36.34;99427.28;10421976;28;20258;-74
2023/05/05 13:50:29;;;;;;;2.20;1.50;;;;;;;22.91;37.25;99408.78;10427036;28;20231;-72
2023/05/05 13:55:30;;;;;;;5.50;1.88;;;;;;;23.25;37.26;99410.88;10426244;28;20228;-69
2023/05/05 14:00:33;;;;;;;2.28;1.77;;;;;;;22.84;37.57;99410.97;10422235;28;20232;-70
2023/05/05 14:05:36;;;;;;;1.95;1.70;;;;;;;23.97;36.58;99351.25;10425320;28;20289;-73
2023/05/05 14:10:39;;;;;;;3.25;1.52;;;;;;;22.22;38.01;99437.41;10416561;28;20231;-72
2023/05/05 14:15:41;;;;;;;2.50;1.80;;;;;;;23.20;37.33;99378.97;10420281;28;20239;-74
2023/05/05 14:20:42;;;;;;;3.60;1.63;;;;;;;23.39;37.17;99365.50;10423981;28;20236;-73
2023/05/05 14:25:44;;;;;;;4.35;2.13;;;;;;;23.87;36.62;99345.88;10421255;28;20781;-73
2023/05/05 14:30:46;;;;;;;4.70;1.80;;;;;;;24.11;36.70;99335.00;10421902;28;20243;-73
2023/05/05 14:35:48;;;;;;;2.20;1.80;;;;;;;22.49;38.01;99390.81;10420352;28;20623;-73
2023/05/05 14:40:49;;;;;;;3.30;2.00;;;;;;;23.06;36.89;99375.19;10427133;28;20255;-72
2023/05/05 14:45:52;;;;;;;2.75;1.70;;;;;;;23.52;36.97;99388.66;10423062;28;20243;-73
2023/05/05 14:50:53;;;;;;;5.28;1.60;;;;;;;23.73;37.29;99392.09;10427254;28;20236;-72
2023/05/05 14:55:55;;;;;;;2.90;2.25;;;;;;;23.04;38.06;99391.00;10425276;28;20240;-71
2023/05/05 15:00:57;;;;;;;2.42;1.67;;;;;;;20.38;42.20;99503.25;10424432;28;20227;-73
2023/05/05 15:05:58;;;;;;;9.77;2.83;;;;;;;20.53;44.06;99530.59;10426335;28;20258;-72
2023/05/05 15:11:00;;;;;;;4.15;2.58;;;;;;;17.49;52.33;99543.78;10421600;28;20745;-70
2023/05/05 15:16:02;;;;;;;3.20;2.45;;;;;;;18.04;53.89;99650.81;10425661;28;20714;-71
2023/05/05 15:21:04;;;;;;;3.63;2.70;;;;;;;19.43;52.74;99585.66;10425962;28;21060;-72
2023/05/05 15:26:05;;;;;;;6.53;3.08;;;;;;;20.59;51.30;99558.63;10423077;28;20232;-70
2023/05/05 15:31:07;;;;;;;5.47;2.90;;;;;;;20.13;51.89;99599.69;10418917;28;20581;-71
2023/05/05 15:36:09;;;;;;;4.00;3.10;;;;;;;20.15;52.39;99586.66;10422106;28;20668;-71
2023/05/05 15:41:11;;;;;;;3.40;2.72;;;;;;;18.45;55.51;99642.75;10418933;28;20224;-70
2023/05/05 15:46:12;;;;;;;4.93;2.80;;;;;;;19.67;52.70;99621.63;10417595;28;21816;-70
2023/05/05 15:51:14;;;;;;;5.03;3.22;;;;;;;20.15;52.26;99624.69;10425997;28;20224;-71
2023/05/05 15:56:16;;;;;;;4.00;2.30;;;;;;;21.24;50.16;99592.16;10423849;28;20242;-70
2023/05/05 16:01:17;;;;;;;6.85;2.70;;;;;;;19.47;52.91;99640.25;10430853;28;20228;-69
2023/05/05 16:06:19;;;;;;;4.97;2.97;;;;;;;20.10;51.36;99620.00;10431065;28;21078;-71
2023/05/05 16:11:22;;;;;;;3.67;2.88;;;;;;;19.25;53.18;99699.84;10428970;28;20258;-71
2023/05/05 16:16:23;;;;;;;3.55;2.85;;;;;;;20.58;51.52;99644.81;10426651;28;20701;-69
2023/05/05 16:21:26;;;;;;;3.30;3.00;;;;;;;20.53;51.83;99630.31;10431462;28;20247;-70
2023/05/05 16:26:28;;;;;;;7.45;4.60;;;;;;;21.21;49.50;99576.34;10422748;28;20236;-70
2023/05/05 16:31:30;;;;;;;6.60;3.80;;;;;;;22.49;47.74;99541.56;10428275;28;20227;-70
2023/05/05 16:36:32;;;;;;;4.90;3.63;;;;;;;20.56;50.58;99597.19;10423347;28;20626;-69
2023/05/05 16:41:34;;;;;;;6.78;3.65;;;;;;;20.91;50.75;99623.94;10429097;28;20250;-70
2023/05/05 16:46:36;;;;;;;6.22;3.70;;;;;;;21.95;49.00;99510.09;10426119;28;20285;-70
2023/05/05 16:51:38;;;;;;;5.03;3.22;;;;;;;21.64;50.19;99565.47;10429992;28;20323;-70
2023/05/05 16:56:39;;;;;;;8.75;5.88;;;;;;;21.92;48.83;99547.91;10428629;28;20759;-71
2023/05/05 17:01:42;;;;;;;4.22;2.38;;;;;;;21.88;48.12;99584.91;10423780;28;20237;-70
2023/05/05 17:06:43;;;;;;;3.03;2.50;;;;;;;22.29;48.07;99576.97;10419730;28;20244;-70
2023/05/05 17:11:45;;;;;;;3.00;2.42;;;;;;;20.26;51.49;99659.09;10425244;28;20239;-69
2023/05/05 17:16:47;;;;;;;3.33;2.90;;;;;;;19.28;55.56;99691.22;10428936;28;20965;-70
2023/05/05 17:21:48;;;;;;;6.45;3.33;;;;;;;19.91;54.84;99657.50;10431604;28;20235;-72
2023/05/05 17:26:50;;;;;;;7.03;4.00;;;;;;;21.47;51.52;99623.63;10425933;28;20650;-73
2023/05/05 17:31:52;;;;;;;3.42;2.30;;;;;;;18.46;52.27;99726.50;10426867;28;21028;-74
2023/05/05 17:36:55;;;;;;;3.63;2.20;;;;;;;18.64;51.21;99724.69;10425590;28;20286;-74
2023/05/05 17:41:56;;;;;;;3.70;2.00;;;;;;;18.55;51.95;99789.28;10431075;28;20239;-74
2023/05/05 17:46:58;;;;;;;2.73;2.30;;;;;;;19.05;51.49;99768.09;10425128;28;20236;-72
2023/05/05 17:52:00;;;;;;;4.53;2.43;;;;;;;19.56;49.90;99709.38;10424311;28;20603;-73
2023/05/05 17:57:01;;;;;;;5.93;2.90;;;;;;;20.40;49.78;99718.50;10427872;28;20235;-74
2023/05/05 18:02:03;;;;;;;3.30;2.30;;;;;;;19.47;50.39;99736.06;10432055;28;20227;-72
2023/05/05 18:07:05;;;;;;;3.20;2.47;;;;;;;18.22;52.93;99749.22;10432890;28;20362;-73
2023/05/05 18:12:07;;;;;;;3.80;2.40;;;;;;;16.61;56.33;99773.13;10438188;28;20314;-73
2023/05/05 18:17:08;;;;;;;2.60;2.40;;;;;;;16.89;56.74;99806.94;10437339;28;20857;-72
2023/05/05 18:22:10;;;;;;;4.03;2.83;;;;;;;18.53;53.55;99790.59;10429130;28;20619;-72
2023/05/05 18:27:12;;;;;;;3.40;3.10;;;;;;;18.77;52.97;99778.63;10427642;28;20232;-73
2023/05/05 18:32:14;;;;;;;19.97;13.47;;;;;;;18.31;53.90;99768.69;10426326;28;20236;-75
2023/05/05 18:37:16;;;;;;;3.30;2.33;;;;;;;19.02;52.98;99805.47;10431486;28;20274;-73
2023/05/05 18:42:17;;;;;;;2.47;1.90;;;;;;;17.03;54.97;99834.66;10431388;28;20277;-73
2023/05/05 18:47:19;;;;;;;2.70;2.50;;;;;;;17.87;54.25;99851.03;10423262;28;20244;-72
2023/05/05 18:52:20;;;;;;;2.30;2.10;;;;;;;16.96;55.44;99844.72;10427703;28;20231;-73
2023/05/05 18:57:22;;;;;;;2.53;2.20;;;;;;;17.75;53.48;99846.63;10429316;28;20228;-73
2023/05/05 19:02:24;;;;;;;3.57;2.07;;;;;;;17.85;53.44;99860.41;10425907;28;20720;-73
2023/05/05 19:07:27;;;;;;;1.83;1.73;;;;;;;18.93;51.71;99863.88;10431688;28;20366;-70
2023/05/05 19:12:48;;;;;;;2.60;2.13;;;;;;;19.79;50.23;99838.69;10425467;28;20256;-72
2023/05/05 19:17:51;;;;;;;3.37;2.30;;;;;;;19.02;50.88;99778.34;10432294;28;20586;-70
2023/05/05 19:22:53;;;;;;;4.33;2.53;;;;;;;19.34;50.64;99806.91;10418113;28;20242;-70
2023/05/05 19:27:54;;;;;;;2.70;2.50;;;;;;;20.62;48.69;99800.88;10428111;28;20749;-71
2023/05/05 19:32:56;;;;;;;3.67;2.13;;;;;;;17.93;53.33;99824.91;10435584;28;20235;-70
2023/05/05 19:37:58;;;;;;;2.50;2.30;;;;;;;18.79;52.41;99848.88;10434686;28;20227;-71
2023/05/05 19:42:59;;;;;;;2.80;2.60;;;;;;;19.27;51.04;99817.09;10432313;28;20240;-68
2023/05/05 19:48:01;;;;;;;3.57;2.43;;;;;;;19.63;51.14;99831.34;10426824;28;20227;-72
2023/05/05 19:53:03;;;;;;;3.40;2.50;;;;;;;18.06;53.24;99827.38;10436739;28;20247;-70
2023/05/05 19:58:05;;;;;;;2.43;2.23;;;;;;;18.84;52.38;99828.13;10429408;28;20238;-70
2023/05/05 20:03:07;;;;;;;3.07;2.67;;;;;;;19.29;51.38;99820.38;10433324;28;24267;-68
2023/05/05 20:08:09;;;;;;;3.37;2.93;;;;;;;18.13;54.04;99848.94;10430970;28;20236;-70
2023/05/05 20:13:11;;;;;;;3.57;2.77;;;;;;;18.71;52.94;99851.94;10428459;28;20232;-69
2023/05/05 20:18:20;;;;;;;6.37;2.73;;;;;;;17.82;55.15;99890.69;10425904;28;20661;-70
2023/05/05 20:23:21;;;;;;;4.17;2.80;;;;;;;18.60;53.31;99870.69;10427815;28;20247;-70
2023/05/05 20:28:23;;;;;;;3.40;2.73;;;;;;;17.41;54.63;99816.47;10430904;28;20208;-69
2023/05/05 20:33:25;;;;;;;5.73;3.30;;;;;;;18.09;54.55;99866.72;10421996;28;20236;-70
2023/05/05 20:38:27;;;;;;;4.50;3.53;;;;;;;18.89;53.26;99894.34;10420598;28;22399;-74
2023/05/05 20:43:29;;;;;;;5.17;3.43;;;;;;;17.63;54.95;99887.16;10429548;28;20310;-70
2023/05/05 20:48:31;;;;;;;3.70;3.20;;;;;;;18.41;53.35;99869.16;10434036;28;20208;-70
2023/05/05 20:53:32;;;;;;;3.37;2.97;;;;;;;18.27;54.01;99901.00;10431293;28;20220;-70
2023/05/05 20:58:34;;;;;;;5.40;3.13;;;;;;;18.77;53.06;99906.03;10426094;28;20212;-70
2023/05/05 21:03:36;;;;;;;5.13;2.93;;;;;;;19.02;52.27;99877.88;10426266;28;20254;-69
2023/05/05 21:08:38;;;;;;;4.10;2.57;;;;;;;18.01;53.65;99845.41;10424061;28;20651;-71
2023/05/05 21:13:40;;;;;;;4.10;3.33;;;;;;;18.22;53.28;99842.16;10430042;28;20323;-71
2023/05/05 21:18:45;;;;;;;3.87;2.77;;;;;;;17.95;53.95;99876.94;10435081;28;20619;-70
2023/05/05 21:23:47;;;;;;;3.73;3.00;;;;;;;17.53;54.91;99861.47;10425830;28;20786;-70
2023/05/05 21:28:48;;;;;;;5.30;2.90;;;;;;;18.84;52.52;99889.63;10424126;28;20232;-72
2023/05/05 21:33:50;;;;;;;4.27;3.10;;;;;;;18.77;52.51;99900.59;10426430;28;20243;-71
2023/05/05 21:38:54;;;;;;;4.60;3.23;;;;;;;18.00;53.41;99855.41;10432910;28;20239;-69
2023/05/05 21:43:58;;;;;;;3.80;3.40;;;;;;;18.93;52.01;99892.84;10424408;28;20743;-71
2023/05/05 21:49:11;;;;;;;4.07;3.20;;;;;;;18.90;51.30;99883.28;10428467;28;20238;-70
2023/05/05 21:54:13;;;;;;;4.53;3.87;;;;;;;17.38;53.94;99852.94;10426058;28;20355;-72
2023/05/05 21:59:14;;;;;;;5.73;3.50;;;;;;;18.49;52.56;99909.47;10428430;28;20227;-70
2023/05/05 22:04:17;;;;;;;5.07;3.43;;;;;;;17.78;53.53;99890.31;10425946;28;20318;-72
2023/05/05 22:09:19;;;;;;;4.03;3.23;;;;;;;18.13;52.52;99880.63;10430656;28;20236;-72
2023/05/05 22:14:21;;;;;;;4.47;3.30;;;;;;;17.34;53.76;99887.72;10427816;28;21582;-71
2023/05/05 22:19:22;;;;;;;4.50;3.77;;;;;;;17.32;53.68;99859.25;10422182;28;20734;-71
2023/05/05 22:24:24;;;;;;;4.27;3.50;;;;;;;17.69;52.62;99860.03;10428598;28;20227;-70
2023/05/05 22:29:26;;;;;;;5.07;3.77;;;;;;;17.64;52.74;99888.84;10427336;28;20732;-74
2023/05/05 22:34:28;;;;;;;7.70;4.37;;;;;;;17.02;53.64;99870.00;10430228;28;20238;-70
2023/05/05 22:39:29;;;;;;;6.27;3.43;;;;;;;16.62;54.14;99861.25;10428515;28;20233;-69
2023/05/05 22:44:31;;;;;;;5.57;3.30;;;;;;;16.71;54.06;99891.50;10427897;28;20236;-70
2023/05/05 22:49:33;;;;;;;3.87;3.37;;;;;;;15.35;56.88;99852.34;10426168;28;20228;-70
2023/05/05 22:54:34;;;;;;;4.83;4.00;;;;;;;16.27;55.08;99911.41;10420853;28;20285;-70
2023/05/05 22:59:36;;;;;;;4.70;3.57;;;;;;;17.19;53.08;99906.19;10425371;28;20232;-70
2023/05/05 23:04:38;;;;;;;4.00;3.60;;;;;;;17.66;52.43;99922.75;10428574;28;20803;-70
2023/05/05 23:09:39;;;;;;;4.33;3.67;;;;;;;17.14;53.20;99933.09;10428735;28;20310;-70
2023/05/05 23:14:41;;;;;;;3.80;3.20;;;;;;;18.03;51.49;99933.44;10427651;28;20227;-74
2023/05/05 23:19:46;;;;;;;4.33;3.20;;;;;;;17.95;52.02;99920.25;10432202;28;20224;-72
2023/05/05 23:24:48;;;;;;;5.17;3.20;;;;;;;17.43;52.46;99920.69;10419011;28;20235;-72
2023/05/05 23:29:49;;;;;;;4.13;3.47;;;;;;;16.59;54.20;99928.41;10422622;28;20236;-74
2023/05/05 23:34:51;;;;;;;4.53;3.10;;;;;;;17.00;52.93;99894.56;10426481;28;20323;-74